Eufola, North Carolina
Current Conditions -  °F | °C
As of 5:15 AM on Wednesday 26 Nov 2014 (Local Time) from KRUQ Reporting Station
Moderate Rain Moderate Rain  
Wind Chill:   Ceiling: 5500
Heat Index:   Visibility: 7mi
Dew Point:   Wind: 10mph
Humidity: 96%   Direction: 10°N
Pressure: 29.95"   Gusts: NA
Location:  35.8306°N, 80.9003°W
Report Text: KRUQ 261015Z AUTO 01009KT 7SM RA SCT008 SCT023 OVC055 06/05 A2995 RMK AO2 P0003 T00570051
Loading
Personal Weather Stations






























Interactive Weather Map New forecast layout! Learn more

10-Day Weather Forecast

Advertisements
Track Severe Weather on mobile